Holly Ridge, NC (28445)

1:40 PM EST on February 06, 2016 (GMT -0500)
Marker 3, Sound Side | | Change Station
CLOSE
Current Station
Personal Weather Station
Location: Topsail Beach, NC
Elevation: 30 ft
Nearby Weather Stations
Active Advisory: Wind Advisory

Elev 30 ft 34.36 °N, 77.64 °W | Updated 33 seconds ago

Overcast
Overcast
48.4 °F
Feels Like 43 °F
N
13.0
Wind Variable Wind from ESE
Gusts 16.0 mph

Today
High -- | Low -- °F
--% Chance of Precip.
Yesterday
High -- | Low -- °F
Precip. -- in
Pressure 30.35 in
Visibility 10.0 miles
Clouds Few 8000 ft
Windchill 43 °F
Dew Point 33 °F
Humidity 55%
Rainfall 0.00 in
Snow Depth Not available.
7:04 AM 5:44 PM
Waning Crescent, 4% visible
METAR KNCA 061756Z AUTO 01007KT 10SM FEW080 09/M05 A3034 RMK AO2 SLP275 T00941050 10094 20000 58033
Pressure 30.35 in
Visibility 10.0 miles
Clouds Few 8000 ft
Windchill 43 °F
Dew Point 33 °F
Humidity 55%
Rainfall 0.00 in
Snow Depth Not available.
7:04 AM 5:44 PM
Waning Crescent, 4% visible
METAR KNCA 061756Z AUTO 01007KT 10SM FEW080 09/M05 A3034 RMK AO2 SLP275 T00941050 10094 20000 58033

10-Day Weather Forecast

Almanac

Astronomy

Feb. 06, 2016 Rise Set
Actual Time
Civil Twilight
Nautical Twilight
Astronomical Twilight
Moon
Length of Visible Light
Length of Day
Tomorrow will be .
, % of the Moon is Illuminated

Today's Extremes

State Highs State Lows

Community

WunderPhotos

Upload Photos

1,891,032 photos uploaded!

WunderBlog® & News

Nearby

Air Quality

  Air Quality AQ Index Pollutant
Not available.

Snow Depth

Station Depth Elevation

Earthquake Activity

City Distance Mag. Time & Date
Minimum magnitude displayed is 2.5.

Coastal Water Temperatures

Place Temperature

Stations

Nearby Weather Stations

Station Location Temp. Windchill Dew Point Humidity Wind Precip. Elev Updated Type
                   

Watches & Warnings

Wind Advisory
Issued: 12:52 PM EST Feb. 6, 2016 – National Weather Service

... Wind Advisory in effect from 9 am Sunday to 4 am EST Monday...

The National Weather Service in Newport/Morehead City has issued
a Wind Advisory... which is in effect from 9 am Sunday to 4 am EST
Monday.

* Winds... north 20 to 30 mph with gusts up to 45 mph.

* Timing... Sunday into Sunday night.

* Impacts... gusty winds may blow around loose objects and create
adverse driving conditions for high profile vehicles.

Precautionary/preparedness actions...

A Wind Advisory means that sustained winds of 31 to 39 mph or
gusts in excess of 45 mph are expected. Winds this strong can
make driving difficult... especially for high profile vehicles.
Use extra caution.